sensor_id;sensor_type;location;lat;lon;timestamp;P1;durP1;ratioP1;P2;durP2;ratioP2
26106;SDS011;13866;50.748;12.630;2022-07-06T00:01:37;5.70;;;2.40;;
26106;SDS011;13866;50.748;12.630;2022-07-06T00:04:03;4.47;;;2.70;;
26106;SDS011;13866;50.748;12.630;2022-07-06T00:06:29;2.23;;;2.13;;
26106;SDS011;13866;50.748;12.630;2022-07-06T00:08:55;3.47;;;3.47;;
26106;SDS011;13866;50.748;12.630;2022-07-06T00:11:20;2.70;;;2.50;;
26106;SDS011;13866;50.748;12.630;2022-07-06T00:13:46;3.17;;;2.93;;
26106;SDS011;13866;50.748;12.630;2022-07-06T00:16:12;2.50;;;2.40;;
26106;SDS011;13866;50.748;12.630;2022-07-06T00:18:37;2.47;;;2.37;;
26106;SDS011;13866;50.748;12.630;2022-07-06T00:21:03;2.97;;;2.53;;
26106;SDS011;13866;50.748;12.630;2022-07-06T00:23:28;3.00;;;2.90;;
26106;SDS011;13866;50.748;12.630;2022-07-06T00:25:54;2.70;;;2.70;;
26106;SDS011;13866;50.748;12.630;2022-07-06T00:28:19;3.70;;;3.60;;
26106;SDS011;13866;50.748;12.630;2022-07-06T00:30:45;4.30;;;3.37;;
26106;SDS011;13866;50.748;12.630;2022-07-06T00:33:10;3.10;;;3.10;;
26106;SDS011;13866;50.748;12.630;2022-07-06T00:35:36;6.47;;;3.60;;
26106;SDS011;13866;50.748;12.630;2022-07-06T00:38:01;2.70;;;2.60;;
26106;SDS011;13866;50.748;12.630;2022-07-06T00:40:27;2.60;;;2.53;;
26106;SDS011;13866;50.748;12.630;2022-07-06T00:42:54;3.10;;;2.87;;
26106;SDS011;13866;50.748;12.630;2022-07-06T00:45:20;4.33;;;3.10;;
26106;SDS011;13866;50.748;12.630;2022-07-06T00:47:46;3.33;;;3.00;;
26106;SDS011;13866;50.748;12.630;2022-07-06T00:50:13;5.03;;;3.13;;
26106;SDS011;13866;50.748;12.630;2022-07-06T00:52:40;4.67;;;3.30;;
26106;SDS011;13866;50.748;12.630;2022-07-06T00:55:07;4.03;;;3.07;;
26106;SDS011;13866;50.748;12.630;2022-07-06T00:57:33;2.50;;;2.50;;
26106;SDS011;13866;50.748;12.630;2022-07-06T00:59:59;21.90;;;3.13;;
26106;SDS011;13866;50.748;12.630;2022-07-06T01:02:25;3.00;;;2.93;;
26106;SDS011;13866;50.748;12.630;2022-07-06T01:04:51;3.27;;;3.07;;
26106;SDS011;13866;50.748;12.630;2022-07-06T01:07:16;3.33;;;3.00;;
26106;SDS011;13866;50.748;12.630;2022-07-06T01:09:42;2.90;;;2.80;;
26106;SDS011;13866;50.748;12.630;2022-07-06T01:12:08;3.10;;;2.60;;
26106;SDS011;13866;50.748;12.630;2022-07-06T01:14:34;2.67;;;2.50;;
26106;SDS011;13866;50.748;12.630;2022-07-06T01:17:01;7.77;;;3.00;;
26106;SDS011;13866;50.748;12.630;2022-07-06T01:19:27;2.20;;;2.20;;
26106;SDS011;13866;50.748;12.630;2022-07-06T01:21:52;2.90;;;2.90;;
26106;SDS011;13866;50.748;12.630;2022-07-06T01:24:18;2.90;;;2.90;;
26106;SDS011;13866;50.748;12.630;2022-07-06T01:26:43;3.23;;;2.90;;
26106;SDS011;13866;50.748;12.630;2022-07-06T01:29:09;3.83;;;2.67;;
26106;SDS011;13866;50.748;12.630;2022-07-06T01:31:35;2.43;;;2.43;;
26106;SDS011;13866;50.748;12.630;2022-07-06T01:34:10;4.93;;;3.80;;
26106;SDS011;13866;50.748;12.630;2022-07-06T01:36:36;2.70;;;2.60;;
26106;SDS011;13866;50.748;12.630;2022-07-06T01:39:01;2.83;;;2.80;;
26106;SDS011;13866;50.748;12.630;2022-07-06T01:41:27;3.13;;;2.93;;
26106;SDS011;13866;50.748;12.630;2022-07-06T01:43:52;2.83;;;2.63;;
26106;SDS011;13866;50.748;12.630;2022-07-06T01:46:18;3.60;;;3.30;;
26106;SDS011;13866;50.748;12.630;2022-07-06T01:48:44;3.33;;;3.17;;
26106;SDS011;13866;50.748;12.630;2022-07-06T01:51:10;3.30;;;3.30;;
26106;SDS011;13866;50.748;12.630;2022-07-06T01:53:36;3.53;;;3.33;;
26106;SDS011;13866;50.748;12.630;2022-07-06T01:56:02;3.97;;;3.50;;
26106;SDS011;13866;50.748;12.630;2022-07-06T01:58:28;3.77;;;3.57;;
26106;SDS011;13866;50.748;12.630;2022-07-06T02:00:54;3.30;;;3.20;;
26106;SDS011;13866;50.748;12.630;2022-07-06T02:03:19;3.30;;;3.03;;
26106;SDS011;13866;50.748;12.630;2022-07-06T02:05:44;3.07;;;3.00;;
26106;SDS011;13866;50.748;12.630;2022-07-06T02:08:10;2.63;;;2.60;;
26106;SDS011;13866;50.748;12.630;2022-07-06T02:10:35;3.40;;;3.30;;
26106;SDS011;13866;50.748;12.630;2022-07-06T02:13:01;4.10;;;3.80;;
26106;SDS011;13866;50.748;12.630;2022-07-06T02:15:26;3.50;;;3.40;;
26106;SDS011;13866;50.748;12.630;2022-07-06T02:17:52;3.30;;;3.30;;
26106;SDS011;13866;50.748;12.630;2022-07-06T02:20:17;4.40;;;2.73;;
26106;SDS011;13866;50.748;12.630;2022-07-06T02:22:43;2.90;;;2.90;;
26106;SDS011;13866;50.748;12.630;2022-07-06T02:25:08;3.77;;;3.50;;
26106;SDS011;13866;50.748;12.630;2022-07-06T02:27:33;4.70;;;4.40;;
26106;SDS011;13866;50.748;12.630;2022-07-06T02:29:59;3.50;;;2.80;;
26106;SDS011;13866;50.748;12.630;2022-07-06T02:32:25;3.20;;;3.10;;
26106;SDS011;13866;50.748;12.630;2022-07-06T02:34:50;3.90;;;3.60;;
26106;SDS011;13866;50.748;12.630;2022-07-06T02:37:16;3.87;;;3.77;;
26106;SDS011;13866;50.748;12.630;2022-07-06T02:39:41;4.60;;;4.33;;
26106;SDS011;13866;50.748;12.630;2022-07-06T02:42:06;4.60;;;4.40;;
26106;SDS011;13866;50.748;12.630;2022-07-06T02:44:32;4.13;;;4.03;;
26106;SDS011;13866;50.748;12.630;2022-07-06T02:46:58;3.20;;;3.03;;
26106;SDS011;13866;50.748;12.630;2022-07-06T02:49:23;3.60;;;3.60;;
26106;SDS011;13866;50.748;12.630;2022-07-06T02:51:48;3.90;;;3.80;;
26106;SDS011;13866;50.748;12.630;2022-07-06T02:54:14;4.03;;;3.60;;
26106;SDS011;13866;50.748;12.630;2022-07-06T02:56:39;3.97;;;3.80;;
26106;SDS011;13866;50.748;12.630;2022-07-06T02:59:05;4.53;;;4.17;;
26106;SDS011;13866;50.748;12.630;2022-07-06T03:01:30;14.73;;;4.83;;
26106;SDS011;13866;50.748;12.630;2022-07-06T03:03:56;4.47;;;4.37;;
26106;SDS011;13866;50.748;12.630;2022-07-06T03:06:21;5.23;;;4.97;;
26106;SDS011;13866;50.748;12.630;2022-07-06T03:08:47;7.10;;;4.10;;
26106;SDS011;13866;50.748;12.630;2022-07-06T03:11:12;4.60;;;4.30;;
26106;SDS011;13866;50.748;12.630;2022-07-06T03:13:38;4.30;;;4.10;;
26106;SDS011;13866;50.748;12.630;2022-07-06T03:16:03;5.03;;;4.73;;
26106;SDS011;13866;50.748;12.630;2022-07-06T03:18:29;4.20;;;3.80;;
26106;SDS011;13866;50.748;12.630;2022-07-06T03:20:54;4.40;;;4.20;;
26106;SDS011;13866;50.748;12.630;2022-07-06T03:23:19;3.90;;;3.80;;
26106;SDS011;13866;50.748;12.630;2022-07-06T03:25:45;3.47;;;3.20;;
26106;SDS011;13866;50.748;12.630;2022-07-06T03:28:11;3.63;;;3.43;;
26106;SDS011;13866;50.748;12.630;2022-07-06T03:30:37;3.50;;;3.30;;
26106;SDS011;13866;50.748;12.630;2022-07-06T03:33:02;3.70;;;3.50;;
26106;SDS011;13866;50.748;12.630;2022-07-06T03:35:28;3.57;;;3.33;;
26106;SDS011;13866;50.748;12.630;2022-07-06T03:37:53;5.90;;;3.30;;
26106;SDS011;13866;50.748;12.630;2022-07-06T03:40:19;4.20;;;3.90;;
26106;SDS011;13866;50.748;12.630;2022-07-06T03:42:45;3.53;;;3.53;;
26106;SDS011;13866;50.748;12.630;2022-07-06T03:45:10;3.90;;;3.70;;
26106;SDS011;13866;50.748;12.630;2022-07-06T03:47:36;3.60;;;3.47;;
26106;SDS011;13866;50.748;12.630;2022-07-06T03:50:01;3.50;;;3.30;;
26106;SDS011;13866;50.748;12.630;2022-07-06T03:52:27;3.60;;;3.40;;
26106;SDS011;13866;50.748;12.630;2022-07-06T03:54:52;3.70;;;3.60;;
26106;SDS011;13866;50.748;12.630;2022-07-06T03:57:18;2.70;;;2.60;;
26106;SDS011;13866;50.748;12.630;2022-07-06T03:59:43;9.87;;;4.07;;
26106;SDS011;13866;50.748;12.630;2022-07-06T04:02:09;3.40;;;3.30;;
26106;SDS011;13866;50.748;12.630;2022-07-06T04:04:34;7.10;;;3.20;;
26106;SDS011;13866;50.748;12.630;2022-07-06T04:07:00;3.93;;;3.60;;
26106;SDS011;13866;50.748;12.630;2022-07-06T04:09:25;3.50;;;3.40;;
26106;SDS011;13866;50.748;12.630;2022-07-06T04:11:51;5.50;;;3.23;;
26106;SDS011;13866;50.748;12.630;2022-07-06T04:14:16;2.83;;;2.83;;
26106;SDS011;13866;50.748;12.630;2022-07-06T04:16:42;6.67;;;3.53;;
26106;SDS011;13866;50.748;12.630;2022-07-06T04:19:08;3.40;;;3.10;;
26106;SDS011;13866;50.748;12.630;2022-07-06T04:21:33;3.80;;;3.40;;
26106;SDS011;13866;50.748;12.630;2022-07-06T04:23:59;3.13;;;3.03;;
26106;SDS011;13866;50.748;12.630;2022-07-06T04:26:24;3.13;;;3.07;;
26106;SDS011;13866;50.748;12.630;2022-07-06T04:28:49;4.90;;;2.97;;
26106;SDS011;13866;50.748;12.630;2022-07-06T04:31:15;4.50;;;2.60;;
26106;SDS011;13866;50.748;12.630;2022-07-06T04:33:41;3.37;;;3.27;;
26106;SDS011;13866;50.748;12.630;2022-07-06T04:36:08;3.00;;;2.77;;
26106;SDS011;13866;50.748;12.630;2022-07-06T04:38:34;4.60;;;2.97;;
26106;SDS011;13866;50.748;12.630;2022-07-06T04:40:59;5.63;;;2.93;;
26106;SDS011;13866;50.748;12.630;2022-07-06T04:43:25;2.83;;;2.70;;
26106;SDS011;13866;50.748;12.630;2022-07-06T04:45:50;2.83;;;2.77;;
26106;SDS011;13866;50.748;12.630;2022-07-06T04:48:16;3.27;;;3.10;;
26106;SDS011;13866;50.748;12.630;2022-07-06T04:50:41;3.73;;;3.47;;
26106;SDS011;13866;50.748;12.630;2022-07-06T04:53:07;4.40;;;2.60;;
26106;SDS011;13866;50.748;12.630;2022-07-06T04:55:32;3.30;;;2.80;;
26106;SDS011;13866;50.748;12.630;2022-07-06T04:57:58;10.60;;;2.83;;
26106;SDS011;13866;50.748;12.630;2022-07-06T05:00:24;3.37;;;3.07;;
26106;SDS011;13866;50.748;12.630;2022-07-06T05:02:49;2.97;;;2.87;;
26106;SDS011;13866;50.748;12.630;2022-07-06T05:05:15;10.80;;;3.00;;
26106;SDS011;13866;50.748;12.630;2022-07-06T05:07:40;4.13;;;3.10;;
26106;SDS011;13866;50.748;12.630;2022-07-06T05:10:09;2.90;;;2.80;;
26106;SDS011;13866;50.748;12.630;2022-07-06T05:12:36;3.30;;;3.10;;
26106;SDS011;13866;50.748;12.630;2022-07-06T05:15:01;4.10;;;3.80;;
26106;SDS011;13866;50.748;12.630;2022-07-06T05:17:27;4.40;;;3.53;;
26106;SDS011;13866;50.748;12.630;2022-07-06T05:19:53;5.40;;;3.10;;
26106;SDS011;13866;50.748;12.630;2022-07-06T05:22:18;5.83;;;3.33;;
26106;SDS011;13866;50.748;12.630;2022-07-06T05:24:44;7.60;;;3.20;;
26106;SDS011;13866;50.748;12.630;2022-07-06T05:27:10;3.73;;;3.13;;
26106;SDS011;13866;50.748;12.630;2022-07-06T05:29:35;14.93;;;3.70;;
26106;SDS011;13866;50.748;12.630;2022-07-06T05:32:01;16.57;;;4.37;;
26106;SDS011;13866;50.748;12.630;2022-07-06T05:34:27;5.50;;;3.43;;
26106;SDS011;13866;50.748;12.630;2022-07-06T05:36:52;3.10;;;3.00;;
26106;SDS011;13866;50.748;12.630;2022-07-06T05:39:18;7.13;;;2.93;;
26106;SDS011;13866;50.748;12.630;2022-07-06T05:41:44;4.53;;;2.60;;
26106;SDS011;13866;50.748;12.630;2022-07-06T05:44:10;3.13;;;2.93;;
26106;SDS011;13866;50.748;12.630;2022-07-06T05:46:35;2.83;;;2.63;;
26106;SDS011;13866;50.748;12.630;2022-07-06T05:49:01;3.60;;;2.90;;
26106;SDS011;13866;50.748;12.630;2022-07-06T05:51:45;7.10;;;2.70;;
26106;SDS011;13866;50.748;12.630;2022-07-06T05:54:10;3.20;;;3.00;;
26106;SDS011;13866;50.748;12.630;2022-07-06T05:56:36;2.93;;;2.83;;
26106;SDS011;13866;50.748;12.630;2022-07-06T05:59:01;4.53;;;2.67;;
26106;SDS011;13866;50.748;12.630;2022-07-06T06:01:27;2.20;;;2.10;;
26106;SDS011;13866;50.748;12.630;2022-07-06T06:03:52;5.23;;;2.43;;
26106;SDS011;13866;50.748;12.630;2022-07-06T06:06:18;3.17;;;2.53;;
26106;SDS011;13866;50.748;12.630;2022-07-06T06:08:43;5.70;;;2.50;;
26106;SDS011;13866;50.748;12.630;2022-07-06T06:11:09;6.80;;;3.13;;
26106;SDS011;13866;50.748;12.630;2022-07-06T06:13:34;2.53;;;2.43;;
26106;SDS011;13866;50.748;12.630;2022-07-06T06:16:00;6.07;;;2.90;;
26106;SDS011;13866;50.748;12.630;2022-07-06T06:18:25;2.13;;;2.00;;
26106;SDS011;13866;50.748;12.630;2022-07-06T06:20:51;2.30;;;1.67;;
26106;SDS011;13866;50.748;12.630;2022-07-06T06:23:17;3.00;;;1.87;;
26106;SDS011;13866;50.748;12.630;2022-07-06T06:25:42;3.20;;;2.00;;
26106;SDS011;13866;50.748;12.630;2022-07-06T06:28:09;5.80;;;2.00;;
26106;SDS011;13866;50.748;12.630;2022-07-06T06:30:35;3.20;;;1.73;;
26106;SDS011;13866;50.748;12.630;2022-07-06T06:33:12;2.50;;;2.30;;
26106;SDS011;13866;50.748;12.630;2022-07-06T06:35:43;4.93;;;1.93;;
26106;SDS011;13866;50.748;12.630;2022-07-06T06:38:10;4.53;;;1.70;;
26106;SDS011;13866;50.748;12.630;2022-07-06T06:40:36;2.63;;;1.93;;
26106;SDS011;13866;50.748;12.630;2022-07-06T06:43:02;2.20;;;1.70;;
26106;SDS011;13866;50.748;12.630;2022-07-06T06:45:28;4.37;;;2.07;;
26106;SDS011;13866;50.748;12.630;2022-07-06T06:47:53;4.13;;;1.60;;
26106;SDS011;13866;50.748;12.630;2022-07-06T06:50:19;1.80;;;1.70;;
26106;SDS011;13866;50.748;12.630;2022-07-06T06:52:44;8.63;;;1.80;;
26106;SDS011;13866;50.748;12.630;2022-07-06T06:55:10;2.17;;;1.97;;
26106;SDS011;13866;50.748;12.630;2022-07-06T06:57:36;3.23;;;1.80;;
26106;SDS011;13866;50.748;12.630;2022-07-06T07:00:02;1.60;;;1.50;;
26106;SDS011;13866;50.748;12.630;2022-07-06T07:02:29;4.10;;;2.20;;
26106;SDS011;13866;50.748;12.630;2022-07-06T07:04:54;5.23;;;1.87;;
26106;SDS011;13866;50.748;12.630;2022-07-06T07:07:20;3.67;;;2.70;;
26106;SDS011;13866;50.748;12.630;2022-07-06T07:09:45;3.53;;;1.67;;
26106;SDS011;13866;50.748;12.630;2022-07-06T07:12:11;3.10;;;1.87;;
26106;SDS011;13866;50.748;12.630;2022-07-06T07:14:37;13.60;;;3.33;;
26106;SDS011;13866;50.748;12.630;2022-07-06T07:17:02;3.37;;;1.60;;
26106;SDS011;13866;50.748;12.630;2022-07-06T07:19:28;6.77;;;1.57;;
26106;SDS011;13866;50.748;12.630;2022-07-06T07:21:53;1.90;;;1.80;;
26106;SDS011;13866;50.748;12.630;2022-07-06T07:24:19;3.73;;;1.90;;
26106;SDS011;13866;50.748;12.630;2022-07-06T07:26:44;2.93;;;1.70;;
26106;SDS011;13866;50.748;12.630;2022-07-06T07:29:10;7.83;;;2.10;;
26106;SDS011;13866;50.748;12.630;2022-07-06T07:31:35;2.13;;;1.77;;
26106;SDS011;13866;50.748;12.630;2022-07-06T07:34:01;3.03;;;1.80;;
26106;SDS011;13866;50.748;12.630;2022-07-06T07:36:26;1.73;;;1.60;;
26106;SDS011;13866;50.748;12.630;2022-07-06T07:38:52;2.00;;;1.90;;
26106;SDS011;13866;50.748;12.630;2022-07-06T07:41:17;1.47;;;1.33;;
26106;SDS011;13866;50.748;12.630;2022-07-06T07:43:43;2.70;;;1.70;;
26106;SDS011;13866;50.748;12.630;2022-07-06T07:46:09;2.60;;;1.47;;
26106;SDS011;13866;50.748;12.630;2022-07-06T07:48:35;2.53;;;1.80;;
26106;SDS011;13866;50.748;12.630;2022-07-06T07:51:00;1.83;;;1.77;;
26106;SDS011;13866;50.748;12.630;2022-07-06T07:53:26;6.03;;;3.33;;
26106;SDS011;13866;50.748;12.630;2022-07-06T07:55:51;1.77;;;1.67;;
26106;SDS011;13866;50.748;12.630;2022-07-06T07:58:17;4.70;;;2.10;;
26106;SDS011;13866;50.748;12.630;2022-07-06T08:00:43;1.60;;;1.50;;
26106;SDS011;13866;50.748;12.630;2022-07-06T08:03:08;3.90;;;1.90;;
26106;SDS011;13866;50.748;12.630;2022-07-06T08:05:34;8.00;;;1.93;;
26106;SDS011;13866;50.748;12.630;2022-07-06T08:07:59;2.40;;;1.37;;
26106;SDS011;13866;50.748;12.630;2022-07-06T08:10:25;1.33;;;1.33;;
26106;SDS011;13866;50.748;12.630;2022-07-06T08:12:51;3.50;;;1.47;;
26106;SDS011;13866;50.748;12.630;2022-07-06T08:15:16;1.90;;;1.80;;
26106;SDS011;13866;50.748;12.630;2022-07-06T08:17:41;1.70;;;1.60;;
26106;SDS011;13866;50.748;12.630;2022-07-06T08:20:07;5.87;;;1.80;;
26106;SDS011;13866;50.748;12.630;2022-07-06T08:22:35;9.00;;;1.43;;
26106;SDS011;13866;50.748;12.630;2022-07-06T08:25:01;3.13;;;1.47;;
26106;SDS011;13866;50.748;12.630;2022-07-06T08:27:26;3.43;;;1.67;;
26106;SDS011;13866;50.748;12.630;2022-07-06T08:29:52;6.53;;;2.10;;
26106;SDS011;13866;50.748;12.630;2022-07-06T08:32:17;4.73;;;2.77;;
26106;SDS011;13866;50.748;12.630;2022-07-06T08:34:44;4.63;;;1.93;;
26106;SDS011;13866;50.748;12.630;2022-07-06T08:37:10;5.40;;;1.50;;
26106;SDS011;13866;50.748;12.630;2022-07-06T08:39:36;13.63;;;2.57;;
26106;SDS011;13866;50.748;12.630;2022-07-06T08:42:01;8.73;;;4.23;;
26106;SDS011;13866;50.748;12.630;2022-07-06T08:44:28;2.47;;;1.80;;
26106;SDS011;13866;50.748;12.630;2022-07-06T08:46:54;5.00;;;1.80;;
26106;SDS011;13866;50.748;12.630;2022-07-06T08:49:21;2.20;;;1.57;;
26106;SDS011;13866;50.748;12.630;2022-07-06T08:51:47;1.90;;;1.90;;
26106;SDS011;13866;50.748;12.630;2022-07-06T08:54:13;1.10;;;1.07;;
26106;SDS011;13866;50.748;12.630;2022-07-06T08:56:39;4.90;;;1.73;;
26106;SDS011;13866;50.748;12.630;2022-07-06T08:59:05;1.47;;;1.37;;
26106;SDS011;13866;50.748;12.630;2022-07-06T09:01:33;2.83;;;1.60;;
26106;SDS011;13866;50.748;12.630;2022-07-06T09:04:00;2.10;;;1.80;;
26106;SDS011;13866;50.748;12.630;2022-07-06T09:06:29;3.90;;;1.93;;
26106;SDS011;13866;50.748;12.630;2022-07-06T09:08:56;3.50;;;2.00;;
26106;SDS011;13866;50.748;12.630;2022-07-06T09:11:22;2.30;;;1.80;;
26106;SDS011;13866;50.748;12.630;2022-07-06T09:13:49;3.50;;;1.20;;
26106;SDS011;13866;50.748;12.630;2022-07-06T09:16:16;2.03;;;1.93;;
26106;SDS011;13866;50.748;12.630;2022-07-06T09:18:45;4.83;;;1.83;;
26106;SDS011;13866;50.748;12.630;2022-07-06T09:21:11;13.93;;;2.40;;
26106;SDS011;13866;50.748;12.630;2022-07-06T09:23:47;3.47;;;2.00;;
26106;SDS011;13866;50.748;12.630;2022-07-06T09:26:18;5.27;;;1.50;;
26106;SDS011;13866;50.748;12.630;2022-07-06T09:28:44;2.20;;;2.13;;
26106;SDS011;13866;50.748;12.630;2022-07-06T09:31:10;4.40;;;1.80;;
26106;SDS011;13866;50.748;12.630;2022-07-06T09:33:36;1.53;;;1.23;;
26106;SDS011;13866;50.748;12.630;2022-07-06T09:36:03;2.00;;;1.23;;
26106;SDS011;13866;50.748;12.630;2022-07-06T09:38:30;1.53;;;1.23;;
26106;SDS011;13866;50.748;12.630;2022-07-06T09:40:56;19.37;;;2.00;;
26106;SDS011;13866;50.748;12.630;2022-07-06T09:43:22;4.30;;;1.93;;
26106;SDS011;13866;50.748;12.630;2022-07-06T09:45:49;1.43;;;1.30;;
26106;SDS011;13866;50.748;12.630;2022-07-06T09:48:16;5.77;;;1.80;;
26106;SDS011;13866;50.748;12.630;2022-07-06T09:50:44;2.13;;;2.00;;
26106;SDS011;13866;50.748;12.630;2022-07-06T09:53:11;2.60;;;2.40;;
26106;SDS011;13866;50.748;12.630;2022-07-06T09:55:38;2.40;;;1.87;;
26106;SDS011;13866;50.748;12.630;2022-07-06T09:58:04;1.73;;;1.33;;
26106;SDS011;13866;50.748;12.630;2022-07-06T10:00:29;15.23;;;1.40;;
26106;SDS011;13866;50.748;12.630;2022-07-06T10:02:55;1.70;;;1.60;;
26106;SDS011;13866;50.748;12.630;2022-07-06T10:05:21;1.60;;;1.50;;
26106;SDS011;13866;50.748;12.630;2022-07-06T10:07:54;2.13;;;2.03;;
26106;SDS011;13866;50.748;12.630;2022-07-06T10:10:23;7.40;;;1.73;;
26106;SDS011;13866;50.748;12.630;2022-07-06T10:12:50;4.40;;;2.07;;
26106;SDS011;13866;50.748;12.630;2022-07-06T10:15:19;1.30;;;1.20;;
26106;SDS011;13866;50.748;12.630;2022-07-06T10:17:47;4.20;;;2.13;;
26106;SDS011;13866;50.748;12.630;2022-07-06T10:20:13;1.90;;;1.23;;
26106;SDS011;13866;50.748;12.630;2022-07-06T10:22:40;10.70;;;2.43;;
26106;SDS011;13866;50.748;12.630;2022-07-06T10:25:05;3.30;;;1.77;;
26106;SDS011;13866;50.748;12.630;2022-07-06T10:27:32;4.80;;;1.87;;
26106;SDS011;13866;50.748;12.630;2022-07-06T10:29:59;2.33;;;2.23;;
26106;SDS011;13866;50.748;12.630;2022-07-06T10:32:25;6.70;;;1.60;;
26106;SDS011;13866;50.748;12.630;2022-07-06T10:34:51;4.83;;;1.50;;
26106;SDS011;13866;50.748;12.630;2022-07-06T10:37:21;1.40;;;1.40;;
26106;SDS011;13866;50.748;12.630;2022-07-06T10:39:49;8.53;;;2.07;;
26106;SDS011;13866;50.748;12.630;2022-07-06T10:42:41;3.90;;;1.77;;
26106;SDS011;13866;50.748;12.630;2022-07-06T10:45:08;4.33;;;1.70;;
26106;SDS011;13866;50.748;12.630;2022-07-06T10:47:35;1.97;;;1.67;;
26106;SDS011;13866;50.748;12.630;2022-07-06T10:50:01;3.63;;;1.70;;
26106;SDS011;13866;50.748;12.630;2022-07-06T10:55:36;3.47;;;1.93;;
26106;SDS011;13866;50.748;12.630;2022-07-06T10:58:03;5.27;;;1.70;;
26106;SDS011;13866;50.748;12.630;2022-07-06T11:00:47;3.53;;;1.77;;
26106;SDS011;13866;50.748;12.630;2022-07-06T11:03:35;1.77;;;1.67;;
26106;SDS011;13866;50.748;12.630;2022-07-06T11:06:14;7.30;;;1.87;;
26106;SDS011;13866;50.748;12.630;2022-07-06T11:08:51;3.40;;;1.97;;
26106;SDS011;13866;50.748;12.630;2022-07-06T11:11:21;4.03;;;1.83;;
26106;SDS011;13866;50.748;12.630;2022-07-06T11:13:49;3.00;;;1.83;;
26106;SDS011;13866;50.748;12.630;2022-07-06T11:16:20;9.73;;;1.50;;
26106;SDS011;13866;50.748;12.630;2022-07-06T11:18:50;5.83;;;2.13;;
26106;SDS011;13866;50.748;12.630;2022-07-06T11:21:39;8.07;;;2.30;;
26106;SDS011;13866;50.748;12.630;2022-07-06T11:24:06;1.23;;;1.23;;
26106;SDS011;13866;50.748;12.630;2022-07-06T11:26:34;6.33;;;2.70;;
26106;SDS011;13866;50.748;12.630;2022-07-06T11:29:01;2.60;;;1.70;;
26106;SDS011;13866;50.748;12.630;2022-07-06T11:31:30;2.03;;;1.57;;
26106;SDS011;13866;50.748;12.630;2022-07-06T11:33:57;6.90;;;2.20;;
26106;SDS011;13866;50.748;12.630;2022-07-06T11:36:22;4.47;;;1.80;;
26106;SDS011;13866;50.748;12.630;2022-07-06T11:38:48;1.60;;;1.30;;
26106;SDS011;13866;50.748;12.630;2022-07-06T11:41:15;7.93;;;1.20;;
26106;SDS011;13866;50.748;12.630;2022-07-06T11:43:42;1.13;;;1.13;;
26106;SDS011;13866;50.748;12.630;2022-07-06T11:46:29;2.03;;;1.90;;
26106;SDS011;13866;50.748;12.630;2022-07-06T11:49:02;1.13;;;1.07;;
26106;SDS011;13866;50.748;12.630;2022-07-06T11:51:31;2.03;;;1.67;;
26106;SDS011;13866;50.748;12.630;2022-07-06T11:54:00;16.03;;;1.70;;
26106;SDS011;13866;50.748;12.630;2022-07-06T11:56:32;1.20;;;1.20;;
26106;SDS011;13866;50.748;12.630;2022-07-06T11:58:58;1.80;;;1.67;;
26106;SDS011;13866;50.748;12.630;2022-07-06T12:01:25;4.53;;;1.20;;
26106;SDS011;13866;50.748;12.630;2022-07-06T12:03:52;3.40;;;1.20;;
26106;SDS011;13866;50.748;12.630;2022-07-06T12:06:22;1.17;;;0.93;;
26106;SDS011;13866;50.748;12.630;2022-07-06T12:08:53;1.40;;;1.10;;
26106;SDS011;13866;50.748;12.630;2022-07-06T12:11:21;1.30;;;1.20;;
26106;SDS011;13866;50.748;12.630;2022-07-06T12:13:49;6.60;;;1.10;;
26106;SDS011;13866;50.748;12.630;2022-07-06T12:16:19;1.37;;;1.13;;
26106;SDS011;13866;50.748;12.630;2022-07-06T12:18:48;4.20;;;1.60;;
26106;SDS011;13866;50.748;12.630;2022-07-06T12:21:14;1.70;;;1.43;;
26106;SDS011;13866;50.748;12.630;2022-07-06T12:23:44;1.37;;;1.30;;
26106;SDS011;13866;50.748;12.630;2022-07-06T12:26:11;1.60;;;1.50;;
26106;SDS011;13866;50.748;12.630;2022-07-06T12:28:38;4.57;;;1.10;;
26106;SDS011;13866;50.748;12.630;2022-07-06T12:31:04;5.40;;;1.30;;
26106;SDS011;13866;50.748;12.630;2022-07-06T12:33:29;0.93;;;0.93;;
26106;SDS011;13866;50.748;12.630;2022-07-06T12:35:55;2.07;;;1.87;;
26106;SDS011;13866;50.748;12.630;2022-07-06T12:38:27;4.17;;;1.47;;
26106;SDS011;13866;50.748;12.630;2022-07-06T12:40:54;3.80;;;1.63;;
26106;SDS011;13866;50.748;12.630;2022-07-06T12:43:38;1.47;;;1.40;;
26106;SDS011;13866;50.748;12.630;2022-07-06T12:49:01;2.13;;;1.30;;
26106;SDS011;13866;50.748;12.630;2022-07-06T12:51:50;8.53;;;1.20;;
26106;SDS011;13866;50.748;12.630;2022-07-06T12:54:34;4.77;;;1.23;;
26106;SDS011;13866;50.748;12.630;2022-07-06T12:57:14;1.90;;;1.17;;
26106;SDS011;13866;50.748;12.630;2022-07-06T12:59:42;4.10;;;1.20;;
26106;SDS011;13866;50.748;12.630;2022-07-06T13:02:17;1.63;;;1.63;;
26106;SDS011;13866;50.748;12.630;2022-07-06T13:04:43;4.23;;;1.80;;
26106;SDS011;13866;50.748;12.630;2022-07-06T13:07:18;3.67;;;1.80;;
26106;SDS011;13866;50.748;12.630;2022-07-06T13:09:44;1.80;;;1.17;;
26106;SDS011;13866;50.748;12.630;2022-07-06T13:12:10;2.53;;;1.53;;
26106;SDS011;13866;50.748;12.630;2022-07-06T13:14:35;1.30;;;1.20;;
26106;SDS011;13866;50.748;12.630;2022-07-06T13:17:01;2.03;;;1.23;;
26106;SDS011;13866;50.748;12.630;2022-07-06T13:19:27;2.17;;;2.07;;
26106;SDS011;13866;50.748;12.630;2022-07-06T13:21:53;3.37;;;1.03;;
26106;SDS011;13866;50.748;12.630;2022-07-06T13:24:18;2.23;;;1.50;;
26106;SDS011;13866;50.748;12.630;2022-07-06T13:26:44;1.60;;;1.30;;
26106;SDS011;13866;50.748;12.630;2022-07-06T13:29:10;1.17;;;1.07;;
26106;SDS011;13866;50.748;12.630;2022-07-06T13:31:36;2.30;;;1.50;;
26106;SDS011;13866;50.748;12.630;2022-07-06T13:34:02;2.47;;;0.93;;
26106;SDS011;13866;50.748;12.630;2022-07-06T13:36:27;1.23;;;1.23;;
26106;SDS011;13866;50.748;12.630;2022-07-06T13:38:53;4.17;;;1.33;;
26106;SDS011;13866;50.748;12.630;2022-07-06T13:41:18;9.93;;;1.50;;
26106;SDS011;13866;50.748;12.630;2022-07-06T13:43:44;5.60;;;1.30;;
26106;SDS011;13866;50.748;12.630;2022-07-06T13:46:09;0.90;;;0.90;;
26106;SDS011;13866;50.748;12.630;2022-07-06T13:48:38;1.87;;;1.77;;
26106;SDS011;13866;50.748;12.630;2022-07-06T13:51:03;1.43;;;1.30;;
26106;SDS011;13866;50.748;12.630;2022-07-06T13:53:29;1.70;;;1.10;;
26106;SDS011;13866;50.748;12.630;2022-07-06T13:55:56;1.20;;;1.20;;
26106;SDS011;13866;50.748;12.630;2022-07-06T13:58:22;0.93;;;0.93;;
26106;SDS011;13866;50.748;12.630;2022-07-06T14:00:47;2.93;;;1.33;;
26106;SDS011;13866;50.748;12.630;2022-07-06T14:03:13;2.67;;;1.03;;
26106;SDS011;13866;50.748;12.630;2022-07-06T14:05:38;3.80;;;1.30;;
26106;SDS011;13866;50.748;12.630;2022-07-06T14:08:04;1.10;;;1.10;;
26106;SDS011;13866;50.748;12.630;2022-07-06T14:10:30;1.20;;;1.10;;
26106;SDS011;13866;50.748;12.630;2022-07-06T14:12:55;5.97;;;1.10;;
26106;SDS011;13866;50.748;12.630;2022-07-06T14:15:21;1.27;;;1.17;;
26106;SDS011;13866;50.748;12.630;2022-07-06T14:17:46;3.43;;;1.47;;
26106;SDS011;13866;50.748;12.630;2022-07-06T14:20:12;0.67;;;0.67;;
26106;SDS011;13866;50.748;12.630;2022-07-06T14:22:41;4.13;;;1.23;;
26106;SDS011;13866;50.748;12.630;2022-07-06T14:25:07;6.90;;;2.80;;
26106;SDS011;13866;50.748;12.630;2022-07-06T14:27:33;2.30;;;1.10;;
26106;SDS011;13866;50.748;12.630;2022-07-06T14:30:00;0.70;;;0.70;;
26106;SDS011;13866;50.748;12.630;2022-07-06T14:32:25;2.90;;;0.90;;
26106;SDS011;13866;50.748;12.630;2022-07-06T14:34:51;1.37;;;1.27;;
26106;SDS011;13866;50.748;12.630;2022-07-06T14:37:17;1.80;;;0.70;;